sensor_id;sensor_type;location;lat;lon;timestamp;temperature;humidity
48535;DHT22;34323;52.022;5.686;2022-09-09T00:01:08;22.00;99.90
48535;DHT22;34323;52.022;5.686;2022-09-09T00:03:45;22.00;99.90
48535;DHT22;34323;52.022;5.686;2022-09-09T00:06:27;21.90;99.90
48535;DHT22;34323;52.022;5.686;2022-09-09T00:09:12;21.70;99.90
48535;DHT22;34323;52.022;5.686;2022-09-09T00:14:12;21.70;99.90
48535;DHT22;34323;52.022;5.686;2022-09-09T00:16:38;21.80;99.90
48535;DHT22;34323;52.022;5.686;2022-09-09T00:19:18;21.90;99.90
48535;DHT22;34323;52.022;5.686;2022-09-09T00:22:31;21.90;99.90
48535;DHT22;34323;52.022;5.686;2022-09-09T00:24:34;21.80;99.90
48535;DHT22;34323;52.022;5.686;2022-09-09T00:27:08;21.50;99.90
48535;DHT22;34323;52.022;5.686;2022-09-09T00:29:43;21.40;99.90
48535;DHT22;34323;52.022;5.686;2022-09-09T00:32:13;21.50;99.90
48535;DHT22;34323;52.022;5.686;2022-09-09T00:34:42;21.50;99.90
48535;DHT22;34323;52.022;5.686;2022-09-09T00:37:09;21.50;99.90
48535;DHT22;34323;52.022;5.686;2022-09-09T00:39:39;21.50;99.90
48535;DHT22;34323;52.022;5.686;2022-09-09T00:42:21;21.60;99.90
48535;DHT22;34323;52.022;5.686;2022-09-09T00:50:01;21.60;99.90
48535;DHT22;34323;52.022;5.686;2022-09-09T00:52:39;21.50;99.90
48535;DHT22;34323;52.022;5.686;2022-09-09T00:55:07;21.50;99.90
48535;DHT22;34323;52.022;5.686;2022-09-09T00:57:35;21.50;99.90
48535;DHT22;34323;52.022;5.686;2022-09-09T01:02:53;21.20;99.90
48535;DHT22;34323;52.022;5.686;2022-09-09T01:05:30;21.00;99.90
48535;DHT22;34323;52.022;5.686;2022-09-09T01:08:00;21.00;99.90
48535;DHT22;34323;52.022;5.686;2022-09-09T01:11:01;21.20;99.90
48535;DHT22;34323;52.022;5.686;2022-09-09T01:13:26;21.30;99.90
48535;DHT22;34323;52.022;5.686;2022-09-09T01:15:53;21.20;99.90
48535;DHT22;34323;52.022;5.686;2022-09-09T01:18:20;21.10;99.90
48535;DHT22;34323;52.022;5.686;2022-09-09T01:28:28;21.10;99.90
48535;DHT22;34323;52.022;5.686;2022-09-09T01:30:54;21.20;99.90
48535;DHT22;34323;52.022;5.686;2022-09-09T01:33:21;21.10;99.90
48535;DHT22;34323;52.022;5.686;2022-09-09T01:38:12;20.70;99.90
48535;DHT22;34323;52.022;5.686;2022-09-09T01:40:38;20.90;99.90
48535;DHT22;34323;52.022;5.686;2022-09-09T01:43:03;20.90;99.90
48535;DHT22;34323;52.022;5.686;2022-09-09T01:45:29;21.00;99.90
48535;DHT22;34323;52.022;5.686;2022-09-09T01:47:55;21.10;99.90
48535;DHT22;34323;52.022;5.686;2022-09-09T01:50:21;21.30;99.90
48535;DHT22;34323;52.022;5.686;2022-09-09T01:52:48;21.40;99.90
48535;DHT22;34323;52.022;5.686;2022-09-09T01:55:15;21.40;99.90
48535;DHT22;34323;52.022;5.686;2022-09-09T02:00:10;21.60;99.90
48535;DHT22;34323;52.022;5.686;2022-09-09T02:05:25;21.30;99.90
48535;DHT22;34323;52.022;5.686;2022-09-09T02:07:56;21.20;99.90
48535;DHT22;34323;52.022;5.686;2022-09-09T02:10:30;21.20;99.90
48535;DHT22;34323;52.022;5.686;2022-09-09T02:13:01;21.30;99.90
48535;DHT22;34323;52.022;5.686;2022-09-09T02:15:35;21.10;99.90
48535;DHT22;34323;52.022;5.686;2022-09-09T02:18:04;21.30;99.90
48535;DHT22;34323;52.022;5.686;2022-09-09T02:20:34;21.10;99.90
48535;DHT22;34323;52.022;5.686;2022-09-09T02:23:00;21.00;99.90
48535;DHT22;34323;52.022;5.686;2022-09-09T02:25:26;21.10;99.90
48535;DHT22;34323;52.022;5.686;2022-09-09T02:27:53;21.30;99.90
48535;DHT22;34323;52.022;5.686;2022-09-09T02:30:19;21.20;99.90
48535;DHT22;34323;52.022;5.686;2022-09-09T02:32:45;21.10;99.90
48535;DHT22;34323;52.022;5.686;2022-09-09T02:35:13;21.00;99.90
48535;DHT22;34323;52.022;5.686;2022-09-09T02:37:40;21.00;99.90
48535;DHT22;34323;52.022;5.686;2022-09-09T02:40:07;20.90;99.90
48535;DHT22;34323;52.022;5.686;2022-09-09T02:42:40;21.00;99.90
48535;DHT22;34323;52.022;5.686;2022-09-09T02:45:06;20.90;99.90
48535;DHT22;34323;52.022;5.686;2022-09-09T02:47:36;21.00;99.90
48535;DHT22;34323;52.022;5.686;2022-09-09T02:50:06;21.00;99.90
48535;DHT22;34323;52.022;5.686;2022-09-09T02:52:38;21.10;99.90
48535;DHT22;34323;52.022;5.686;2022-09-09T02:55:17;21.00;99.90
48535;DHT22;34323;52.022;5.686;2022-09-09T02:57:43;21.10;99.90
48535;DHT22;34323;52.022;5.686;2022-09-09T03:00:12;20.80;99.90
48535;DHT22;34323;52.022;5.686;2022-09-09T03:02:38;20.40;99.90
48535;DHT22;34323;52.022;5.686;2022-09-09T03:05:04;20.50;99.90
48535;DHT22;34323;52.022;5.686;2022-09-09T03:07:30;20.50;99.90
48535;DHT22;34323;52.022;5.686;2022-09-09T03:09:55;20.40;99.90
48535;DHT22;34323;52.022;5.686;2022-09-09T03:12:21;20.50;99.90
48535;DHT22;34323;52.022;5.686;2022-09-09T03:14:46;20.60;99.90
48535;DHT22;34323;52.022;5.686;2022-09-09T03:17:12;20.50;99.90
48535;DHT22;34323;52.022;5.686;2022-09-09T03:19:37;20.70;99.90
48535;DHT22;34323;52.022;5.686;2022-09-09T03:22:03;20.60;99.90
48535;DHT22;34323;52.022;5.686;2022-09-09T03:24:29;20.50;99.90
48535;DHT22;34323;52.022;5.686;2022-09-09T03:26:55;20.30;99.90
48535;DHT22;34323;52.022;5.686;2022-09-09T03:29:23;20.30;99.90
48535;DHT22;34323;52.022;5.686;2022-09-09T03:31:49;20.30;99.90
48535;DHT22;34323;52.022;5.686;2022-09-09T03:34:15;20.30;99.90
48535;DHT22;34323;52.022;5.686;2022-09-09T03:36:41;20.40;99.90
48535;DHT22;34323;52.022;5.686;2022-09-09T03:39:06;20.20;99.90
48535;DHT22;34323;52.022;5.686;2022-09-09T03:41:32;20.10;99.90
48535;DHT22;34323;52.022;5.686;2022-09-09T03:43:57;20.20;99.90
48535;DHT22;34323;52.022;5.686;2022-09-09T03:46:24;20.10;99.90
48535;DHT22;34323;52.022;5.686;2022-09-09T03:48:50;20.20;99.90
48535;DHT22;34323;52.022;5.686;2022-09-09T03:51:18;20.10;99.90
48535;DHT22;34323;52.022;5.686;2022-09-09T03:53:43;20.20;99.90
48535;DHT22;34323;52.022;5.686;2022-09-09T03:56:09;20.30;99.90
48535;DHT22;34323;52.022;5.686;2022-09-09T03:58:35;20.30;99.90
48535;DHT22;34323;52.022;5.686;2022-09-09T04:01:03;20.30;99.90
48535;DHT22;34323;52.022;5.686;2022-09-09T04:03:29;20.30;99.90
48535;DHT22;34323;52.022;5.686;2022-09-09T04:05:55;20.40;99.90
48535;DHT22;34323;52.022;5.686;2022-09-09T04:08:21;20.40;99.90
48535;DHT22;34323;52.022;5.686;2022-09-09T04:10:47;20.30;99.90
48535;DHT22;34323;52.022;5.686;2022-09-09T04:13:13;20.40;99.90
48535;DHT22;34323;52.022;5.686;2022-09-09T04:15:40;20.40;99.90
48535;DHT22;34323;52.022;5.686;2022-09-09T04:18:06;20.40;99.90
48535;DHT22;34323;52.022;5.686;2022-09-09T04:20:31;20.50;99.90
48535;DHT22;34323;52.022;5.686;2022-09-09T04:22:57;20.30;99.90
48535;DHT22;34323;52.022;5.686;2022-09-09T04:25:23;20.30;99.90
48535;DHT22;34323;52.022;5.686;2022-09-09T04:27:52;20.50;99.90
48535;DHT22;34323;52.022;5.686;2022-09-09T04:30:18;20.50;99.90
48535;DHT22;34323;52.022;5.686;2022-09-09T04:32:43;20.50;99.90
48535;DHT22;34323;52.022;5.686;2022-09-09T04:35:09;20.60;99.90
48535;DHT22;34323;52.022;5.686;2022-09-09T04:37:34;20.40;99.90
48535;DHT22;34323;52.022;5.686;2022-09-09T04:40:00;20.20;99.90
48535;DHT22;34323;52.022;5.686;2022-09-09T04:42:27;20.40;99.90
48535;DHT22;34323;52.022;5.686;2022-09-09T04:44:53;20.50;99.90
48535;DHT22;34323;52.022;5.686;2022-09-09T04:47:19;20.70;99.90
48535;DHT22;34323;52.022;5.686;2022-09-09T04:49:45;20.90;99.90
48535;DHT22;34323;52.022;5.686;2022-09-09T04:52:10;20.80;99.90
48535;DHT22;34323;52.022;5.686;2022-09-09T04:54:36;21.10;99.90
48535;DHT22;34323;52.022;5.686;2022-09-09T04:57:01;20.80;99.90
48535;DHT22;34323;52.022;5.686;2022-09-09T04:59:27;20.90;99.90
48535;DHT22;34323;52.022;5.686;2022-09-09T05:01:52;20.60;99.90
48535;DHT22;34323;52.022;5.686;2022-09-09T05:04:20;20.70;99.90
48535;DHT22;34323;52.022;5.686;2022-09-09T05:06:45;20.60;99.90
48535;DHT22;34323;52.022;5.686;2022-09-09T05:09:11;20.70;99.90
48535;DHT22;34323;52.022;5.686;2022-09-09T05:11:36;20.80;99.90
48535;DHT22;34323;52.022;5.686;2022-09-09T05:14:03;21.00;99.90
48535;DHT22;34323;52.022;5.686;2022-09-09T05:16:28;20.70;99.90
48535;DHT22;34323;52.022;5.686;2022-09-09T05:18:55;20.90;99.90
48535;DHT22;34323;52.022;5.686;2022-09-09T05:21:21;20.80;99.90
48535;DHT22;34323;52.022;5.686;2022-09-09T05:23:48;20.90;99.90
48535;DHT22;34323;52.022;5.686;2022-09-09T05:26:17;21.00;99.90
48535;DHT22;34323;52.022;5.686;2022-09-09T05:28:43;20.60;99.90
48535;DHT22;34323;52.022;5.686;2022-09-09T05:31:09;20.80;99.90
48535;DHT22;34323;52.022;5.686;2022-09-09T05:33:36;21.00;99.90
48535;DHT22;34323;52.022;5.686;2022-09-09T05:36:06;20.70;99.90
48535;DHT22;34323;52.022;5.686;2022-09-09T05:38:33;20.50;99.90
48535;DHT22;34323;52.022;5.686;2022-09-09T05:40:59;20.40;99.90
48535;DHT22;34323;52.022;5.686;2022-09-09T05:43:25;20.30;99.90
48535;DHT22;34323;52.022;5.686;2022-09-09T05:48:30;20.20;99.90
48535;DHT22;34323;52.022;5.686;2022-09-09T05:50:56;20.20;99.90
48535;DHT22;34323;52.022;5.686;2022-09-09T05:53:21;20.40;99.90
48535;DHT22;34323;52.022;5.686;2022-09-09T05:55:47;20.60;99.90
48535;DHT22;34323;52.022;5.686;2022-09-09T05:58:13;20.50;99.90
48535;DHT22;34323;52.022;5.686;2022-09-09T06:00:39;20.80;99.90
48535;DHT22;34323;52.022;5.686;2022-09-09T06:03:05;20.80;99.90
48535;DHT22;34323;52.022;5.686;2022-09-09T06:05:30;20.80;99.90
48535;DHT22;34323;52.022;5.686;2022-09-09T06:07:56;20.80;99.90
48535;DHT22;34323;52.022;5.686;2022-09-09T06:10:21;20.60;99.90
48535;DHT22;34323;52.022;5.686;2022-09-09T06:12:47;20.60;99.90
48535;DHT22;34323;52.022;5.686;2022-09-09T06:15:12;20.80;99.90
48535;DHT22;34323;52.022;5.686;2022-09-09T06:17:38;20.70;99.90
48535;DHT22;34323;52.022;5.686;2022-09-09T06:20:04;20.90;99.90
48535;DHT22;34323;52.022;5.686;2022-09-09T06:22:30;21.00;99.90
48535;DHT22;34323;52.022;5.686;2022-09-09T06:24:55;21.00;99.90
48535;DHT22;34323;52.022;5.686;2022-09-09T06:27:20;21.10;99.90
48535;DHT22;34323;52.022;5.686;2022-09-09T06:29:46;20.90;99.90
48535;DHT22;34323;52.022;5.686;2022-09-09T06:32:11;20.90;99.90
48535;DHT22;34323;52.022;5.686;2022-09-09T06:34:37;20.40;99.90
48535;DHT22;34323;52.022;5.686;2022-09-09T06:37:02;20.50;99.90
48535;DHT22;34323;52.022;5.686;2022-09-09T06:39:28;20.50;99.90
48535;DHT22;34323;52.022;5.686;2022-09-09T06:41:54;20.60;99.90
48535;DHT22;34323;52.022;5.686;2022-09-09T06:44:19;20.60;99.90
48535;DHT22;34323;52.022;5.686;2022-09-09T06:46:45;20.80;99.90
48535;DHT22;34323;52.022;5.686;2022-09-09T06:49:13;20.70;99.90
48535;DHT22;34323;52.022;5.686;2022-09-09T06:51:38;20.60;99.90
48535;DHT22;34323;52.022;5.686;2022-09-09T06:54:08;20.70;99.90
48535;DHT22;34323;52.022;5.686;2022-09-09T06:56:35;20.80;99.90
48535;DHT22;34323;52.022;5.686;2022-09-09T06:59:02;20.90;99.90
48535;DHT22;34323;52.022;5.686;2022-09-09T07:01:33;21.00;99.90
48535;DHT22;34323;52.022;5.686;2022-09-09T07:03:59;21.00;99.90
48535;DHT22;34323;52.022;5.686;2022-09-09T07:06:26;21.00;99.90
48535;DHT22;34323;52.022;5.686;2022-09-09T07:08:53;21.00;99.90
48535;DHT22;34323;52.022;5.686;2022-09-09T07:11:20;20.90;99.90
48535;DHT22;34323;52.022;5.686;2022-09-09T07:13:46;20.70;99.90
48535;DHT22;34323;52.022;5.686;2022-09-09T07:16:14;20.60;99.90
48535;DHT22;34323;52.022;5.686;2022-09-09T07:18:40;20.50;99.90
48535;DHT22;34323;52.022;5.686;2022-09-09T07:21:06;20.80;99.90
48535;DHT22;34323;52.022;5.686;2022-09-09T07:23:31;20.70;99.90
48535;DHT22;34323;52.022;5.686;2022-09-09T07:25:57;20.50;99.90
48535;DHT22;34323;52.022;5.686;2022-09-09T07:28:23;20.70;99.90
48535;DHT22;34323;52.022;5.686;2022-09-09T07:30:53;20.70;99.90
48535;DHT22;34323;52.022;5.686;2022-09-09T07:33:18;20.50;99.90
48535;DHT22;34323;52.022;5.686;2022-09-09T07:35:45;20.50;99.90
48535;DHT22;34323;52.022;5.686;2022-09-09T07:38:11;20.60;99.90
48535;DHT22;34323;52.022;5.686;2022-09-09T07:40:36;20.50;99.90
48535;DHT22;34323;52.022;5.686;2022-09-09T07:43:02;20.70;99.90
48535;DHT22;34323;52.022;5.686;2022-09-09T07:45:27;20.60;99.90
48535;DHT22;34323;52.022;5.686;2022-09-09T07:47:53;20.40;99.90
48535;DHT22;34323;52.022;5.686;2022-09-09T07:50:20;20.50;99.90
48535;DHT22;34323;52.022;5.686;2022-09-09T07:52:46;20.40;99.90
48535;DHT22;34323;52.022;5.686;2022-09-09T07:55:11;20.50;99.90
48535;DHT22;34323;52.022;5.686;2022-09-09T07:57:36;20.70;99.90
48535;DHT22;34323;52.022;5.686;2022-09-09T08:00:03;20.80;99.90
48535;DHT22;34323;52.022;5.686;2022-09-09T08:02:29;20.80;99.90
48535;DHT22;34323;52.022;5.686;2022-09-09T08:04:55;20.80;99.90
48535;DHT22;34323;52.022;5.686;2022-09-09T08:07:21;20.80;99.90
48535;DHT22;34323;52.022;5.686;2022-09-09T08:09:47;20.90;99.90
48535;DHT22;34323;52.022;5.686;2022-09-09T08:12:13;20.90;99.90
48535;DHT22;34323;52.022;5.686;2022-09-09T08:14:38;21.10;99.90
48535;DHT22;34323;52.022;5.686;2022-09-09T08:17:05;21.30;99.90
48535;DHT22;34323;52.022;5.686;2022-09-09T08:19:30;21.50;99.90
48535;DHT22;34323;52.022;5.686;2022-09-09T08:21:59;21.50;99.90
48535;DHT22;34323;52.022;5.686;2022-09-09T08:24:24;21.60;99.90
48535;DHT22;34323;52.022;5.686;2022-09-09T08:26:50;21.70;99.90
48535;DHT22;34323;52.022;5.686;2022-09-09T08:29:16;21.80;99.90
48535;DHT22;34323;52.022;5.686;2022-09-09T08:31:49;22.00;99.90
48535;DHT22;34323;52.022;5.686;2022-09-09T08:34:14;21.90;99.90
48535;DHT22;34323;52.022;5.686;2022-09-09T08:36:41;21.90;99.90
48535;DHT22;34323;52.022;5.686;2022-09-09T08:39:08;22.20;99.90
48535;DHT22;34323;52.022;5.686;2022-09-09T08:49:24;21.90;99.90
48535;DHT22;34323;52.022;5.686;2022-09-09T08:51:57;21.60;99.90
48535;DHT22;34323;52.022;5.686;2022-09-09T08:54:23;21.50;99.90
48535;DHT22;34323;52.022;5.686;2022-09-09T08:56:48;21.50;99.90
48535;DHT22;34323;52.022;5.686;2022-09-09T08:59:16;21.60;99.90
48535;DHT22;34323;52.022;5.686;2022-09-09T09:01:44;21.40;99.90
48535;DHT22;34323;52.022;5.686;2022-09-09T09:04:17;21.50;99.90
48535;DHT22;34323;52.022;5.686;2022-09-09T09:12:18;21.50;99.90
48535;DHT22;34323;52.022;5.686;2022-09-09T09:14:45;21.60;99.90
48535;DHT22;34323;52.022;5.686;2022-09-09T09:17:12;21.50;99.90
48535;DHT22;34323;52.022;5.686;2022-09-09T09:19:40;21.60;99.90
48535;DHT22;34323;52.022;5.686;2022-09-09T09:22:06;21.80;99.90
48535;DHT22;34323;52.022;5.686;2022-09-09T09:24:45;21.90;99.90
48535;DHT22;34323;52.022;5.686;2022-09-09T09:27:12;21.90;99.90
48535;DHT22;34323;52.022;5.686;2022-09-09T09:29:38;21.30;99.90
48535;DHT22;34323;52.022;5.686;2022-09-09T09:32:05;21.40;99.90
48535;DHT22;34323;52.022;5.686;2022-09-09T09:34:31;21.60;99.90
48535;DHT22;34323;52.022;5.686;2022-09-09T09:36:57;21.70;99.90
48535;DHT22;34323;52.022;5.686;2022-09-09T09:39:27;22.00;99.90
48535;DHT22;34323;52.022;5.686;2022-09-09T09:41:53;22.10;99.90
48535;DHT22;34323;52.022;5.686;2022-09-09T09:44:24;22.40;99.90
48535;DHT22;34323;52.022;5.686;2022-09-09T09:46:50;22.40;99.90
48535;DHT22;34323;52.022;5.686;2022-09-09T09:49:15;22.60;99.90
48535;DHT22;34323;52.022;5.686;2022-09-09T09:51:42;22.70;99.90
48535;DHT22;34323;52.022;5.686;2022-09-09T09:54:20;22.70;99.90
48535;DHT22;34323;52.022;5.686;2022-09-09T09:56:48;22.70;99.90
48535;DHT22;34323;52.022;5.686;2022-09-09T10:01:45;23.30;99.90
48535;DHT22;34323;52.022;5.686;2022-09-09T10:04:15;23.00;99.90
48535;DHT22;34323;52.022;5.686;2022-09-09T10:06:41;22.90;99.90
48535;DHT22;34323;52.022;5.686;2022-09-09T10:09:26;22.70;99.90
48535;DHT22;34323;52.022;5.686;2022-09-09T10:11:59;22.60;99.90
48535;DHT22;34323;52.022;5.686;2022-09-09T10:14:35;22.10;99.90
48535;DHT22;34323;52.022;5.686;2022-09-09T10:17:14;22.00;99.90
48535;DHT22;34323;52.022;5.686;2022-09-09T10:19:45;22.00;99.90
48535;DHT22;34323;52.022;5.686;2022-09-09T10:22:31;21.90;99.90
48535;DHT22;34323;52.022;5.686;2022-09-09T10:30:14;22.00;99.90
48535;DHT22;34323;52.022;5.686;2022-09-09T10:32:46;21.80;99.90
48535;DHT22;34323;52.022;5.686;2022-09-09T10:40:38;22.50;99.90
48535;DHT22;34323;52.022;5.686;2022-09-09T10:43:17;22.40;99.90
48535;DHT22;34323;52.022;5.686;2022-09-09T10:45:58;22.30;99.90
48535;DHT22;34323;52.022;5.686;2022-09-09T10:48:31;22.20;99.90
48535;DHT22;34323;52.022;5.686;2022-09-09T10:51:10;22.10;99.90
48535;DHT22;34323;52.022;5.686;2022-09-09T10:56:24;21.90;99.90
48535;DHT22;34323;52.022;5.686;2022-09-09T10:58:52;21.90;99.90
48535;DHT22;34323;52.022;5.686;2022-09-09T11:04:03;21.90;99.90
48535;DHT22;34323;52.022;5.686;2022-09-09T11:06:32;21.90;99.90
48535;DHT22;34323;52.022;5.686;2022-09-09T11:09:00;21.80;99.90
48535;DHT22;34323;52.022;5.686;2022-09-09T11:11:35;21.80;99.90
48535;DHT22;34323;52.022;5.686;2022-09-09T11:14:12;22.00;99.90
48535;DHT22;34323;52.022;5.686;2022-09-09T11:16:46;22.40;99.90
48535;DHT22;34323;52.022;5.686;2022-09-09T11:19:31;22.50;99.90
48535;DHT22;34323;52.022;5.686;2022-09-09T11:22:00;22.60;99.90
48535;DHT22;34323;52.022;5.686;2022-09-09T11:24:37;22.40;99.90
48535;DHT22;34323;52.022;5.686;2022-09-09T11:27:14;22.40;99.90
48535;DHT22;34323;52.022;5.686;2022-09-09T11:30:13;22.40;99.90
48535;DHT22;34323;52.022;5.686;2022-09-09T11:35:38;22.20;99.90
48535;DHT22;34323;52.022;5.686;2022-09-09T11:40:59;22.60;99.90
48535;DHT22;34323;52.022;5.686;2022-09-09T11:43:27;23.00;99.90
48535;DHT22;34323;52.022;5.686;2022-09-09T11:45:54;23.00;99.90
48535;DHT22;34323;52.022;5.686;2022-09-09T11:51:10;23.30;99.90
48535;DHT22;34323;52.022;5.686;2022-09-09T11:53:47;23.20;99.90
48535;DHT22;34323;52.022;5.686;2022-09-09T11:56:13;23.10;99.90
48535;DHT22;34323;52.022;5.686;2022-09-09T11:58:59;22.80;99.90
48535;DHT22;34323;52.022;5.686;2022-09-09T12:01:28;22.80;99.90
48535;DHT22;34323;52.022;5.686;2022-09-09T12:04:28;23.00;99.90
48535;DHT22;34323;52.022;5.686;2022-09-09T12:06:51;23.10;99.90
48535;DHT22;34323;52.022;5.686;2022-09-09T12:11:49;23.10;99.90
48535;DHT22;34323;52.022;5.686;2022-09-09T12:14:21;22.90;99.90
48535;DHT22;34323;52.022;5.686;2022-09-09T12:16:48;22.80;99.90
48535;DHT22;34323;52.022;5.686;2022-09-09T12:19:22;22.60;99.90
48535;DHT22;34323;52.022;5.686;2022-09-09T12:21:51;22.40;99.90
48535;DHT22;34323;52.022;5.686;2022-09-09T12:24:39;22.30;99.90
48535;DHT22;34323;52.022;5.686;2022-09-09T12:27:07;22.20;99.90
48535;DHT22;34323;52.022;5.686;2022-09-09T12:32:07;22.10;99.90
48535;DHT22;34323;52.022;5.686;2022-09-09T12:34:41;22.00;99.90
48535;DHT22;34323;52.022;5.686;2022-09-09T12:39:51;22.00;99.90
48535;DHT22;34323;52.022;5.686;2022-09-09T12:42:19;21.90;99.90
48535;DHT22;34323;52.022;5.686;2022-09-09T12:44:55;21.90;99.90
48535;DHT22;34323;52.022;5.686;2022-09-09T12:47:22;22.40;99.90
48535;DHT22;34323;52.022;5.686;2022-09-09T12:49:50;22.80;99.90
48535;DHT22;34323;52.022;5.686;2022-09-09T12:52:23;22.70;99.90
48535;DHT22;34323;52.022;5.686;2022-09-09T12:54:50;22.80;99.90
48535;DHT22;34323;52.022;5.686;2022-09-09T12:57:19;23.10;99.90
48535;DHT22;34323;52.022;5.686;2022-09-09T12:59:45;23.50;99.90
48535;DHT22;34323;52.022;5.686;2022-09-09T13:02:21;23.30;99.90
48535;DHT22;34323;52.022;5.686;2022-09-09T13:04:47;23.10;99.90
48535;DHT22;34323;52.022;5.686;2022-09-09T13:07:13;22.90;99.90
48535;DHT22;34323;52.022;5.686;2022-09-09T13:09:39;22.70;99.90
48535;DHT22;34323;52.022;5.686;2022-09-09T13:12:05;22.60;99.90
48535;DHT22;34323;52.022;5.686;2022-09-09T13:14:33;22.30;99.90
48535;DHT22;34323;52.022;5.686;2022-09-09T13:17:00;22.40;99.90
48535;DHT22;34323;52.022;5.686;2022-09-09T13:19:33;22.40;99.90
48535;DHT22;34323;52.022;5.686;2022-09-09T13:22:00;22.50;99.90
48535;DHT22;34323;52.022;5.686;2022-09-09T13:24:37;22.60;99.90
48535;DHT22;34323;52.022;5.686;2022-09-09T13:27:04;22.70;99.90
48535;DHT22;34323;52.022;5.686;2022-09-09T13:29:31;22.90;99.90
48535;DHT22;34323;52.022;5.686;2022-09-09T13:32:06;22.80;99.90
48535;DHT22;34323;52.022;5.686;2022-09-09T13:34:37;22.70;99.90
48535;DHT22;34323;52.022;5.686;2022-09-09T13:37:04;22.80;99.90
48535;DHT22;34323;52.022;5.686;2022-09-09T13:39:32;22.80;99.90
48535;DHT22;34323;52.022;5.686;2022-09-09T13:41:58;22.70;99.90
48535;DHT22;34323;52.022;5.686;2022-09-09T13:44:25;22.80;99.90
48535;DHT22;34323;52.022;5.686;2022-09-09T13:49:36;23.20;99.90
48535;DHT22;34323;52.022;5.686;2022-09-09T13:52:11;23.20;99.90
48535;DHT22;34323;52.022;5.686;2022-09-09T13:54:39;23.60;99.90
48535;DHT22;34323;52.022;5.686;2022-09-09T13:57:05;24.00;99.90
48535;DHT22;34323;52.022;5.686;2022-09-09T13:59:31;23.90;99.90
48535;DHT22;34323;52.022;5.686;2022-09-09T14:01:57;23.60;99.90
48535;DHT22;34323;52.022;5.686;2022-09-09T14:04:22;23.70;99.90
48535;DHT22;34323;52.022;5.686;2022-09-09T14:06:48;23.50;99.90
48535;DHT22;34323;52.022;5.686;2022-09-09T14:09:15;23.30;99.90
48535;DHT22;34323;52.022;5.686;2022-09-09T14:11:40;23.10;99.90
48535;DHT22;34323;52.022;5.686;2022-09-09T14:14:06;23.30;99.90
48535;DHT22;34323;52.022;5.686;2022-09-09T14:16:32;23.40;99.90
48535;DHT22;34323;52.022;5.686;2022-09-09T14:18:58;23.50;99.90
48535;DHT22;34323;52.022;5.686;2022-09-09T14:21:24;23.30;99.90
48535;DHT22;34323;52.022;5.686;2022-09-09T14:23:50;23.20;99.90
48535;DHT22;34323;52.022;5.686;2022-09-09T14:26:16;23.50;99.90
48535;DHT22;34323;52.022;5.686;2022-09-09T14:28:41;23.30;99.90
48535;DHT22;34323;52.022;5.686;2022-09-09T14:31:07;23.40;99.90
48535;DHT22;34323;52.022;5.686;2022-09-09T14:33:32;23.60;99.90
48535;DHT22;34323;52.022;5.686;2022-09-09T14:35:58;24.20;99.90
48535;DHT22;34323;52.022;5.686;2022-09-09T14:38:25;24.80;99.90
48535;DHT22;34323;52.022;5.686;2022-09-09T14:40:50;25.00;99.90
48535;DHT22;34323;52.022;5.686;2022-09-09T14:43:16;25.20;99.90
48535;DHT22;34323;52.022;5.686;2022-09-09T14:45:41;25.20;99.90
48535;DHT22;34323;52.022;5.686;2022-09-09T14:48:08;24.90;99.90
48535;DHT22;34323;52.022;5.686;2022-09-09T14:50:34;24.90;99.90
48535;DHT22;34323;52.022;5.686;2022-09-09T14:53:01;24.90;99.90
48535;DHT22;34323;52.022;5.686;2022-09-09T14:55:27;24.80;99.90
48535;DHT22;34323;52.022;5.686;2022-09-09T14:57:54;24.80;99.90
48535;DHT22;34323;52.022;5.686;2022-09-09T15:00:19;24.90;99.90
48535;DHT22;34323;52.022;5.686;2022-09-09T15:02:45;24.80;99.90
48535;DHT22;34323;52.022;5.686;2022-09-09T15:05:10;24.70;99.90
48535;DHT22;34323;52.022;5.686;2022-09-09T15:07:36;24.70;99.90
48535;DHT22;34323;52.022;5.686;2022-09-09T15:10:02;24.80;99.90
48535;DHT22;34323;52.022;5.686;2022-09-09T15:12:28;24.60;99.90
48535;DHT22;34323;52.022;5.686;2022-09-09T15:14:53;24.70;99.90
48535;DHT22;34323;52.022;5.686;2022-09-09T15:17:20;24.80;99.90
48535;DHT22;34323;52.022;5.686;2022-09-09T15:19:45;24.90;99.90
48535;DHT22;34323;52.022;5.686;2022-09-09T15:22:11;25.20;99.90
48535;DHT22;34323;52.022;5.686;2022-09-09T15:24:36;25.60;99.90
48535;DHT22;34323;52.022;5.686;2022-09-09T15:27:02;26.00;99.90
48535;DHT22;34323;52.022;5.686;2022-09-09T15:29:28;26.20;99.90
48535;DHT22;34323;52.022;5.686;2022-09-09T15:31:53;26.20;99.90
48535;DHT22;34323;52.022;5.686;2022-09-09T15:34:20;25.80;99.90
48535;DHT22;34323;52.022;5.686;2022-09-09T15:36:45;25.50;99.90
48535;DHT22;34323;52.022;5.686;2022-09-09T15:39:15;25.20;99.90
48535;DHT22;34323;52.022;5.686;2022-09-09T15:41:41;24.80;99.90
48535;DHT22;34323;52.022;5.686;2022-09-09T15:44:07;24.50;99.90
48535;DHT22;34323;52.022;5.686;2022-09-09T15:46:33;24.70;99.90
48535;DHT22;34323;52.022;5.686;2022-09-09T15:49:05;25.20;99.90
48535;DHT22;34323;52.022;5.686;2022-09-09T15:51:31;25.60;99.90
48535;DHT22;34323;52.022;5.686;2022-09-09T15:53:57;25.60;99.90
48535;DHT22;34323;52.022;5.686;2022-09-09T15:56:23;25.40;99.90
48535;DHT22;34323;52.022;5.686;2022-09-09T15:58:49;25.10;99.90
48535;DHT22;34323;52.022;5.686;2022-09-09T16:01:15;24.80;99.90
48535;DHT22;34323;52.022;5.686;2022-09-09T16:03:42;25.10;99.90
48535;DHT22;34323;52.022;5.686;2022-09-09T16:06:08;25.30;99.90
48535;DHT22;34323;52.022;5.686;2022-09-09T16:08:37;25.00;99.90
48535;DHT22;34323;52.022;5.686;2022-09-09T16:11:04;24.50;99.90
48535;DHT22;34323;52.022;5.686;2022-09-09T16:15:10;24.10;99.90
48535;DHT22;34323;52.022;5.686;2022-09-09T16:17:36;24.00;99.90
48535;DHT22;34323;52.022;5.686;2022-09-09T16:20:04;23.90;99.90
48535;DHT22;34323;52.022;5.686;2022-09-09T16:22:32;23.80;99.90
48535;DHT22;34323;52.022;5.686;2022-09-09T16:24:58;23.60;99.90
48535;DHT22;34323;52.022;5.686;2022-09-09T16:27:23;23.90;99.90
48535;DHT22;34323;52.022;5.686;2022-09-09T16:29:49;23.60;99.90
48535;DHT22;34323;52.022;5.686;2022-09-09T16:32:15;23.50;99.90
48535;DHT22;34323;52.022;5.686;2022-09-09T16:34:41;23.30;99.90
48535;DHT22;34323;52.022;5.686;2022-09-09T16:37:08;23.20;99.90
48535;DHT22;34323;52.022;5.686;2022-09-09T16:39:34;24.00;99.90
48535;DHT22;34323;52.022;5.686;2022-09-09T16:42:00;24.80;99.90
48535;DHT22;34323;52.022;5.686;2022-09-09T16:44:25;25.40;99.90
48535;DHT22;34323;52.022;5.686;2022-09-09T16:46:51;25.90;99.90
48535;DHT22;34323;52.022;5.686;2022-09-09T16:49:17;25.10;99.90
48535;DHT22;34323;52.022;5.686;2022-09-09T16:51:45;24.80;99.90
48535;DHT22;34323;52.022;5.686;2022-09-09T16:54:13;24.80;99.90
48535;DHT22;34323;52.022;5.686;2022-09-09T16:56:41;25.00;99.90